• Join FlightAware (Why Join?)
  • Login
  • US Flag 
07:18AM EDT


 

Airport Tracker/Info


-or-


 

Live Flight TrackerFlight Track Log ✈ N680AN ✈ 26-Apr-2013 ✈ KDFW - KBOS

Flight Track Log - Related Links

Times and Time Zones

All times are in EDT time to prevent confusion due to time zone crossing. See the N680AN flight status page for this flight to view local times or setup timezone preferences in your user account.

Time Position Orientation Groundspeed Altitude Reporting Facility
EDT Latitude Longitude Course Direction KTS MPH feet Rate Location/Type
12:24PM 32.8500 -97.0167 79° East 182 209 3,200  Level Dallas / Fort Worth TRACON
12:25PM 32.8100 -96.6867 68° East  Level FlightAware Approximate
12:25PM 32.7833 -97.0000 168° South 235 270 6,100  Level Dallas / Fort Worth TRACON
12:26PM 32.8742 -96.5517 59° Northeast  Level FlightAware Approximate
12:26PM 32.7667 -96.9167 103° East 285 328 8,700  Level Dallas / Fort Worth TRACON
12:27PM 32.9319 -96.4126 67° East  Level FlightAware Approximate
12:27PM 32.8275 -96.7533 66° East 324 373 11,500  Level Fort Worth Center
12:28PM 32.9750 -96.2666 79° East  Level FlightAware Approximate
12:28PM 32.8622 -96.6319 71° East 335 386 13,300  Level Fort Worth Center
12:29PM 32.9868 -96.1124 79° East  Level FlightAware Approximate
12:29PM 32.8658 -96.5206 88° East 361 415 15,200  Level Fort Worth Center
12:30PM 32.8689 -96.3772 89° East 384 442 17,300 1,800 Climbing Fort Worth Center
12:31PM 32.8803 -96.2608 83° East 391 450 18,900 1,800 Climbing Fort Worth Center
12:32PM 32.8997 -96.1069 81° East 414 476 20,900 1,800 Climbing Fort Worth Center
12:33PM 32.9150 -95.9806 82° East 430 495 22,500 1,620 Climbing Fort Worth Center
12:34PM 32.9358 -95.8119 82° East 459 528 24,200 1,800 Climbing Fort Worth Center
12:35PM 32.9547 -95.6531 82° East 473 544 26,200 1,860 Climbing Fort Worth Center
12:36PM 32.9711 -95.4919 83° East 480 552 28,000 1,800 Climbing Fort Worth Center
12:37PM 32.9914 -95.3256 82° East 493 567 29,800 1,560 Climbing Fort Worth Center
12:38PM 33.0053 -95.1667 84° East 493 567 31,200 1,260 Climbing Fort Worth Center
12:39PM 33.0253 -94.9953 82° East 500 575 32,400 1,380 Climbing Fort Worth Center
12:40PM 33.0428 -94.8236 83° East 512 589 34,000 1,380 Climbing Fort Worth Center
12:41PM 33.0642 -94.6522 81° East 517 595 35,200 1,200 Climbing Fort Worth Center
12:42PM 33.0831 -94.4781 83° East 523 602 36,400 900 Climbing Fort Worth Center
12:43PM 33.1039 -94.3036 82° East 523 602 37,000 300 Climbing Fort Worth Center
12:44PM 33.1203 -94.1294 84° East 523 602 37,000  Level Fort Worth Center
12:45PM 33.1364 -93.9528 84° East 523 602 37,000  Level Fort Worth Center
12:46PM 33.1550 -93.7908 82° East 537 618 37,000  Level Fort Worth Center
12:47PM 33.1747 -93.6164 82° East 537 618 37,000  Level Fort Worth Center
12:48PM 33.1922 -93.4394 83° East 537 618 37,000  Level Fort Worth Center
12:49PM 33.2097 -93.2672 83° East 542 624 37,000  Level Fort Worth Center
12:50PM 33.2267 -93.0878 84° East 542 624 37,000  Level Fort Worth Center
12:51PM 33.2433 -92.9156 83° East 542 624 37,000  Level Fort Worth Center
12:52PM 33.2706 -92.7428 79° East 536 617 37,000 540 Level Fort Worth Center
12:55PM 33.4733 -92.4167 53° Northeast 507 583 39,000 540 Climbing Memphis Center
12:56PM 33.5611 -92.2867 51° Northeast 494 568 39,000  Level Memphis Center
12:57PM 33.6442 -92.1589 52° Northeast 489 563 39,000  Level Memphis Center
12:58PM 33.7397 -92.0433 45° Northeast 484 557 39,000  Level Memphis Center
12:59PM 33.8372 -91.9278 45° Northeast 478 550 39,000  Level Memphis Center
01:00PM 33.9181 -91.7989 53° Northeast 478 550 39,000  Level Memphis Center
01:01PM 34.0033 -91.6550 54° Northeast 483 556 39,000  Level Memphis Center
01:02PM 34.0858 -91.5258 52° Northeast 478 550 39,000  Level Memphis Center
01:03PM 34.1622 -91.3939 55° Northeast 478 550 39,000  Level Memphis Center
01:04PM 34.2425 -91.2692 52° Northeast 471 542 39,000  Level Memphis Center
01:05PM 34.3206 -91.1392 54° Northeast 471 542 39,000  Level Memphis Center
01:06PM 34.3942 -91.0217 53° Northeast 476 548 39,000  Level Memphis Center
01:07PM 34.4764 -90.8911 53° Northeast 482 555 39,000  Level Memphis Center
01:08PM 34.5561 -90.7581 54° Northeast 487 560 39,000  Level Memphis Center
01:09PM 34.6400 -90.6197 54° Northeast 493 567 39,000  Level Memphis Center
01:10PM 34.7214 -90.4833 54° Northeast 502 578 39,000  Level Memphis Center
01:11PM 34.8008 -90.3519 54° Northeast 497 572 39,000  Level Memphis Center
01:12PM 34.8906 -90.2028 54° Northeast 497 572 39,000  Level Memphis Center
01:13PM 34.9717 -90.0656 54° Northeast 497 572 39,000  Level Memphis Center
01:14PM 35.0650 -89.9511 45° Northeast 492 566 39,000  Level Memphis Center
01:15PM 35.1753 -89.8667 32° Northeast 470 541 39,000  Level Memphis Center
01:16PM 35.2833 -89.7872 31° Northeast 459 528 39,000  Level Memphis Center
01:17PM 35.3811 -89.7153 31° Northeast 448 516 39,000  Level Memphis Center
01:18PM 35.4892 -89.6353 31° Northeast 454 522 39,000  Level Memphis Center
01:19PM 35.5972 -89.5528 32° Northeast 449 517 39,000  Level Memphis Center
01:20PM 35.7092 -89.4672 32° Northeast 449 517 39,000  Level Memphis Center
01:21PM 35.8169 -89.3867 31° Northeast 443 510 39,000  Level Memphis Center
01:22PM 35.9269 -89.3033 32° Northeast 448 516 39,000  Level Memphis Center
01:23PM 36.0367 -89.2225 31° Northeast 453 521 39,000  Level Memphis Center
01:24PM 36.1464 -89.1361 32° Northeast 453 521 39,000  Level Memphis Center
01:25PM 36.2600 -89.0519 31° Northeast 458 527 39,000  Level Memphis Center
01:26PM 36.3717 -88.9703 30° Northeast 464 534 39,000  Level Memphis Center
01:27PM 36.4856 -88.8858 31° Northeast 469 540 39,000  Level Memphis Center
01:28PM 36.5969 -88.8011 31° Northeast 464 534 39,000  Level Memphis Center
01:29PM 36.7106 -88.7161 31° Northeast 464 534 39,000  Level Memphis Center
01:30PM 36.8239 -88.6308 31° Northeast 464 534 39,000  Level Memphis Center
01:31PM 36.9372 -88.5453 31° Northeast 464 534 39,000  Level Memphis Center
01:32PM 37.0486 -88.4594 32° Northeast 464 534 39,000  Level Memphis Center
01:33PM 37.1617 -88.3708 32° Northeast 464 534 39,000  Level Memphis Center
01:35PM 37.3919 -88.1847 33° Northeast 475 547 39,000  Level Indianapolis Center
01:36PM 37.5033 -88.0964 32° Northeast 470 541 39,000  Level Indianapolis Center
01:37PM 37.6328 -87.9947 32° Northeast 464 534 39,000  Level Indianapolis Center
01:38PM 37.7300 -87.8739 44° Northeast 486 559 39,000  Level Indianapolis Center
01:39PM 37.8258 -87.7503 46° Northeast 484 557 39,000  Level Indianapolis Center
01:40PM 37.9186 -87.6250 47° Northeast 486 559 39,000  Level Indianapolis Center
01:41PM 38.0094 -87.4958 48° Northeast 488 562 39,000  Level Indianapolis Center
01:42PM 38.0997 -87.3669 48° Northeast 487 560 39,000  Level Indianapolis Center
01:43PM 38.1894 -87.2375 49° Northeast 487 560 39,000  Level Indianapolis Center
01:44PM 38.2881 -87.0942 49° Northeast 490 564 39,000  Level Indianapolis Center
01:45PM 38.3781 -86.9633 49° Northeast 489 563 39,000  Level Indianapolis Center
01:46PM 38.4689 -86.8297 49° Northeast 492 566 39,000  Level Indianapolis Center
01:47PM 38.5578 -86.6986 49° Northeast 488 562 39,000  Level Indianapolis Center
01:48PM 38.6478 -86.5661 49° Northeast 490 564 39,000  Level Indianapolis Center
01:50PM 38.7383 -86.4336 49° Northeast 492 566 39,000  Level Indianapolis Center
01:51PM 38.8461 -86.2722 49° Northeast 496 571 39,000  Level Indianapolis Center
01:52PM 38.9319 -86.1425 50° Northeast 495 570 39,000  Level Indianapolis Center
01:53PM 39.0150 -85.9972 54° Northeast 502 578 39,000  Level Indianapolis Center
01:54PM 39.0947 -85.8447 56° Northeast 510 587 39,000  Level Indianapolis Center
01:55PM 39.1739 -85.6922 56° Northeast 512 589 39,000  Level Indianapolis Center
01:56PM 39.2661 -85.5114 57° Northeast 517 595 39,000  Level Indianapolis Center
01:57PM 39.3433 -85.3561 57° Northeast 514 592 39,000  Level Indianapolis Center
01:58PM 39.4219 -85.2006 57° Northeast 516 594 39,000  Level Indianapolis Center
01:59PM 39.5014 -85.0450 56° Northeast 517 595 39,000  Level Indianapolis Center
02:00PM 39.5925 -84.9100 49° Northeast 494 568 39,000  Level Indianapolis Center
02:01PM 39.7033 -84.7739 43° Northeast 492 566 39,000  Level Indianapolis Center
02:02PM 39.8058 -84.6531 42° Northeast 491 565 39,000  Level Indianapolis Center
02:03PM 39.9058 -84.5325 43° Northeast 486 559 39,000  Level Indianapolis Center
02:04PM 39.9961 -84.3953 49° Northeast 507 583 39,000  Level Indianapolis Center
02:05PM 40.0661 -84.2325 61° Northeast 507 583 39,000  Level Indianapolis Center
02:06PM 40.1375 -84.0717 60° Northeast 505 581 39,000  Level Indianapolis Center
02:07PM 40.2097 -83.9108 60° Northeast 506 582 39,000  Level Indianapolis Center
02:08PM 40.2753 -83.7439 63° Northeast 507 583 39,000  Level Indianapolis Center
02:09PM 40.3422 -83.5789 62° Northeast 506 582 39,000  Level Indianapolis Center
02:10PM 40.4092 -83.4144 62° Northeast 504 580 39,000  Level Indianapolis Center
02:11PM 40.4750 -83.2492 62° Northeast 504 580 39,000  Level Indianapolis Center
02:12PM 40.5525 -83.0547 62° Northeast 504 580 39,000  Level Indianapolis Center
02:13PM 40.6169 -82.8900 63° Northeast 504 580 39,000  Level Indianapolis Center
02:14PM 40.6589 -82.7756 64° Northeast 502 578 39,000  Level Cleveland Center
02:15PM 40.7244 -82.6133 62° Northeast 502 578 39,000  Level Cleveland Center
02:16PM 40.7878 -82.4506 63° Northeast 507 583 39,000  Level Cleveland Center
02:17PM 40.8508 -82.2822 64° Northeast 502 578 39,000  Level Cleveland Center
02:18PM 40.9072 -82.1353 63° Northeast 507 583 39,000  Level Cleveland Center
02:19PM 40.9717 -81.9692 63° Northeast 502 578 39,000  Level Cleveland Center
02:20PM 41.0403 -81.8053 61° Northeast 502 578 39,000  Level Cleveland Center
02:21PM 41.1067 -81.6469 61° Northeast 497 572 39,000  Level Cleveland Center
02:22PM 41.1808 -81.4881 58° Northeast 497 572 39,000 -540 Level Cleveland Center
02:23PM 41.2364 -81.3147 67° East 497 572 38,000 -960 Descending Cleveland Center
02:24PM 41.2894 -81.1414 68° East 502 578 37,100 -540 Descending Cleveland Center
02:25PM 41.3422 -80.9619 69° East 508 585 37,000 -60 Descending Cleveland Center
02:26PM 41.3950 -80.7853 68° East 508 585 37,000  Level Cleveland Center
02:27PM 41.4492 -80.6081 68° East 508 585 37,000  Level Cleveland Center
02:28PM 41.5014 -80.4278 69° East 514 592 37,000  Level Cleveland Center
02:29PM 41.5572 -80.2500 67° East 514 592 37,000  Level Cleveland Center
02:30PM 41.6086 -80.0694 69° East 514 592 37,000  Level Cleveland Center
02:31PM 41.6617 -79.8744 70° East 508 585 37,000  Level Cleveland Center
02:32PM 41.7169 -79.6903 68° East 513 590 37,000  Level Cleveland Center
02:33PM 41.7694 -79.5142 68° East 513 590 37,000  Level Cleveland Center
02:34PM 41.8178 -79.3350 70° East 508 585 37,000  Level Cleveland Center
02:35PM 41.8639 -79.1781 68° East 508 585 37,000  Level Cleveland Center
02:36PM 41.9136 -79.0011 69° East 508 585 37,000  Level Cleveland Center
02:37PM 41.9672 -78.8069 70° East 508 585 37,000  Level Cleveland Center
02:38PM 42.0142 -78.6297 70° East 508 585 37,000  Level Cleveland Center
02:39PM 42.0611 -78.4519 70° East 503 579 37,000  Level Cleveland Center
02:40PM 42.1119 -78.2739 69° East 503 579 37,000  Level Cleveland Center
02:41PM 42.1603 -78.0986 70° East 498 573 37,000  Level Cleveland Center
02:42PM 42.2064 -77.9228 70° East 493 567 37,000  Level Cleveland Center
02:43PM 42.2544 -77.7469 70° East 493 567 37,000  Level Cleveland Center
02:44PM 42.3000 -77.5736 70° East 493 567 37,000  Level Cleveland Center
02:45PM 42.3453 -77.3972 71° East 493 567 37,000  Level Cleveland Center
02:47PM 42.4339 -77.0486 71° East 496 571 37,000  Level Boston Center
02:48PM 42.4603 -76.8619 79° East 496 571 37,000  Level Boston Center
02:49PM 42.4778 -76.6744 83° East 496 571 37,000  Level Boston Center
02:50PM 42.4989 -76.4958 81° East 496 571 37,000  Level Boston Center
02:51PM 42.5361 -76.3261 73° East 484 557 37,000  Level Boston Center
02:52PM 42.6336 -76.2164 40° Northeast 439 505 37,000  Level Boston Center
02:53PM 42.7347 -76.1208 35° Northeast 429 494 37,000  Level Boston Center
02:54PM 42.7978 -75.9719 60° Northeast 440 506 37,000  Level Boston Center
02:55PM 42.7931 -75.7847 92° East 445 512 37,000  Level Boston Center
02:56PM 42.7903 -75.5950 91° East 469 540 37,000  Level Boston Center
02:57PM 42.7869 -75.4081 91° East 482 555 37,000  Level Boston Center
02:58PM 42.7833 -75.2211 91° East 495 570 37,000  Level Boston Center
02:59PM 42.7797 -75.0117 91° East 503 579 37,000  Level Boston Center
03:00PM 42.7756 -74.8247 92° East 497 572 37,000  Level Boston Center
03:01PM 42.7711 -74.6350 92° East 497 572 37,000  Level Boston Center
03:02PM 42.7647 -74.4056 92° East 497 572 37,000 -600 Level Boston Center
03:03PM 42.7617 -74.2217 91° East 497 572 35,800 -1,020 Descending Boston Center
03:04PM 42.7561 -74.0322 92° East 497 572 35,000 -420 Descending Boston Center
03:05PM 42.7481 -73.8481 93° East 497 572 35,000  Level Boston Center
03:06PM 42.7356 -73.6669 95° East 492 566 35,000 -60 Level Boston Center
03:07PM 42.7144 -73.4800 99° East 492 566 34,900 -480 Descending Boston Center
03:08PM 42.6953 -73.2961 98° East 492 566 34,100 -1,800 Descending Boston Center
03:09PM 42.6756 -73.1122 98° East 492 566 31,400 -2,760 Descending Boston Center
03:10PM 42.6536 -72.9228 99° East 492 566 28,600 -2,460 Descending Boston Center
03:11PM 42.6333 -72.7392 98° East 499 574 26,500 -2,220 Descending Boston Center
03:12PM 42.6192 -72.5728 97° East 474 545 24,200 -2,400 Descending Boston Center
03:13PM 42.5900 -72.3978 103° East 463 533 21,800 -2,100 Descending Boston Center
03:14PM 42.5733 -72.2569 99° East 450 518 20,100 -1,740 Descending Boston Center
03:15PM 42.5500 -72.0906 101° East 413 475 18,400 -1,620 Descending Boston Center
03:16PM 42.5369 -71.9469 97° East 390 449 16,900 -2,400 Descending Boston Center
03:17PM 42.5236 -71.8092 97° East 378 435 13,700 -2,580 Descending Boston Center
03:18PM 42.5125 -71.6739 96° East 368 423 11,800 -1,740 Descending Boston Center
03:19PM 42.5000 -71.6000 103° East 315 362 10,900 -1,020 Descending KA90
03:20PM 42.5000 -71.4667 90° East 312 359 10,000 -900 Descending KA90
03:21PM 42.5333 -71.3500 69° East 298 343 9,000 -780 Descending KA90
03:22PM 42.5500 -71.2500 77° East 270 311 8,400 -720 Descending KA90
03:23PM 42.5667 -71.1667 75° East 248 285 7,800 -960 Descending KA90
03:24PM 42.5667 -71.1000 90° East 227 261 6,700 -900 Descending KA90
03:25PM 42.5000 -71.0333 144° Southeast 223 257 6,000 -360 Descending KA90
03:26PM 42.4667 -70.9833 132° Southeast 225 259 6,000  Level KA90
03:27PM 42.4167 -70.9333 144° Southeast 228 262 6,000 -240 Level KA90
03:28PM 42.3500 -70.9333 180° South 222 255 5,500 -780 Descending KA90
03:29PM 42.2833 -70.9500 190° South 212 244 4,300 -1,260 Descending KA90
03:30PM 42.2333 -70.9833 206° Southwest 213 245 3,200 -720 Descending KA90
03:31PM 42.1833 -71.0000 194° South 210 242 3,000 -120 Descending KA90
03:32PM 42.1333 -71.0167 194° South 209 241 3,000  Level KA90
03:33PM 42.1333 -71.0833 270° West 186 214 3,000  Level KA90
03:34PM 42.1833 -71.1000 346° North 184 212 3,000 -60 Level KA90
03:35PM 42.2167 -71.0667 37° Northeast 175 201 2,900 -120 Descending KA90